createdAt,value
2022-11-24T00:01:29.071Z,7.49
2022-11-24T00:03:59.228Z,7.59
2022-11-24T00:06:28.005Z,7.62
2022-11-24T00:08:57.136Z,7.67
2022-11-24T00:11:26.819Z,7.61
2022-11-24T00:13:56.970Z,7.73
2022-11-24T00:16:27.745Z,7.76
2022-11-24T00:18:58.690Z,7.72
2022-11-24T00:21:29.081Z,7.72
2022-11-24T00:23:58.442Z,7.71
2022-11-24T00:26:28.359Z,7.73
2022-11-24T00:28:59.541Z,7.71
2022-11-24T00:31:29.707Z,7.75
2022-11-24T00:34:01.023Z,7.84
2022-11-24T00:36:31.631Z,7.84
2022-11-24T00:39:01.682Z,7.94
2022-11-24T00:41:31.540Z,7.84
2022-11-24T00:44:01.811Z,7.89
2022-11-24T00:46:30.388Z,7.92
2022-11-24T00:49:00.396Z,7.93
2022-11-24T00:51:30.424Z,8.00
2022-11-24T00:53:58.903Z,7.99
2022-11-24T00:56:28.933Z,8.11
2022-11-24T00:58:57.251Z,8.06
2022-11-24T01:01:28.298Z,8.06
2022-11-24T01:03:56.677Z,8.08
2022-11-24T01:06:26.444Z,8.13
2022-11-24T01:08:55.425Z,8.06
2022-11-24T01:11:26.398Z,8.12
2022-11-24T01:13:57.436Z,8.11
2022-11-24T01:16:29.878Z,8.14
2022-11-24T01:18:59.016Z,8.14
2022-11-24T01:21:27.267Z,8.21
2022-11-24T01:23:55.511Z,8.20
2022-11-24T01:26:24.301Z,8.20
2022-11-24T01:28:54.958Z,8.19
2022-11-24T01:31:24.452Z,8.22
2022-11-24T01:33:54.594Z,8.24
2022-11-24T01:36:23.401Z,8.20
2022-11-24T01:38:52.531Z,8.20
2022-11-24T01:41:22.959Z,8.18
2022-11-24T01:43:52.109Z,8.29
2022-11-24T01:46:25.321Z,8.36
2022-11-24T01:49:02.349Z,8.38
2022-11-24T01:51:33.060Z,8.41
2022-11-24T01:54:06.045Z,8.43
2022-11-24T01:56:38.303Z,8.47
2022-11-24T01:59:11.381Z,8.43
2022-11-24T02:01:40.122Z,8.48
2022-11-24T02:04:13.618Z,8.49
2022-11-24T02:06:43.948Z,8.53
2022-11-24T02:09:18.172Z,8.49
2022-11-24T02:11:47.530Z,8.41
2022-11-24T02:14:19.257Z,8.34
2022-11-24T02:16:53.054Z,8.29
2022-11-24T02:19:31.898Z,8.24
2022-11-24T02:22:00.329Z,8.19
2022-11-24T02:24:33.941Z,8.14
2022-11-24T02:27:03.688Z,8.08
2022-11-24T02:29:31.958Z,8.08
2022-11-24T02:32:04.360Z,8.02
2022-11-24T02:34:32.964Z,8.01
2022-11-24T02:37:01.228Z,7.98
2022-11-24T02:39:29.393Z,7.93
2022-11-24T02:42:02.722Z,7.87
2022-11-24T02:44:37.021Z,7.83
2022-11-24T02:47:08.533Z,7.77
2022-11-24T02:49:37.052Z,7.72
2022-11-24T02:52:06.372Z,7.70
2022-11-24T02:54:34.911Z,7.67
2022-11-24T02:57:03.353Z,7.60
2022-11-24T02:59:33.479Z,7.56
2022-11-24T03:02:01.911Z,7.49
2022-11-24T03:04:30.353Z,7.43
2022-11-24T03:06:58.761Z,7.42
2022-11-24T03:09:26.935Z,7.39
2022-11-24T03:11:55.101Z,7.32
2022-11-24T03:14:23.266Z,7.29
2022-11-24T03:16:52.919Z,7.20
2022-11-24T03:19:21.128Z,7.15
2022-11-24T03:21:49.343Z,7.14
2022-11-24T03:24:17.606Z,7.10
2022-11-24T03:26:45.871Z,7.08
2022-11-24T03:29:14.274Z,7.08
2022-11-24T03:31:42.518Z,7.09
2022-11-24T03:34:12.319Z,7.07
2022-11-24T03:36:40.517Z,7.07
2022-11-24T03:39:08.923Z,7.05
2022-11-24T03:41:37.139Z,7.03
2022-11-24T03:44:05.978Z,7.01
2022-11-24T03:46:34.270Z,7.00
2022-11-24T03:49:02.902Z,7.00
2022-11-24T03:51:32.396Z,6.97
2022-11-24T03:54:00.606Z,6.88
2022-11-24T03:56:28.966Z,6.84
2022-11-24T03:58:57.191Z,6.81
2022-11-24T04:01:25.534Z,6.76
2022-11-24T04:03:53.876Z,6.75
2022-11-24T04:06:22.193Z,6.84
2022-11-24T04:08:52.120Z,6.84
2022-11-24T04:11:34.177Z,6.91
2022-11-24T04:14:02.516Z,6.91
2022-11-24T04:16:30.743Z,6.90
2022-11-24T04:18:58.965Z,6.94
2022-11-24T04:21:27.182Z,6.94
2022-11-24T04:23:56.888Z,6.95
2022-11-24T04:26:25.234Z,7.01
2022-11-24T04:28:53.472Z,7.00
2022-11-24T04:31:21.891Z,6.93
2022-11-24T04:33:50.217Z,6.90
2022-11-24T04:36:18.345Z,6.90
2022-11-24T04:39:23.502Z,7.07
2022-11-24T04:41:36.073Z,7.12
2022-11-24T04:44:04.429Z,7.14
2022-11-24T04:46:32.644Z,7.12
2022-11-24T04:49:00.897Z,7.03
2022-11-24T04:51:29.251Z,7.05
2022-11-24T04:53:57.453Z,7.01
2022-11-24T04:56:25.645Z,6.88
2022-11-24T04:58:55.257Z,6.81
2022-11-24T05:01:23.548Z,6.80
2022-11-24T05:03:54.732Z,6.78
2022-11-24T05:06:23.198Z,6.83
2022-11-24T05:08:53.388Z,6.82
2022-11-24T05:11:21.621Z,6.82
2022-11-24T05:13:49.921Z,6.76
2022-11-24T05:16:19.550Z,6.83
2022-11-24T05:18:47.768Z,6.87
2022-11-24T05:21:15.987Z,6.94
2022-11-24T05:23:44.772Z,6.85
2022-11-24T05:26:13.079Z,6.95
2022-11-24T05:28:41.316Z,6.91
2022-11-24T05:31:09.849Z,6.91
2022-11-24T05:33:39.923Z,6.89
2022-11-24T05:36:29.127Z,6.87
2022-11-24T05:38:57.469Z,6.82
2022-11-24T05:41:25.703Z,6.73
2022-11-24T05:43:54.336Z,6.74
2022-11-24T05:46:22.626Z,6.81
2022-11-24T05:48:52.296Z,6.68
2022-11-24T05:51:20.503Z,6.65
2022-11-24T05:53:48.839Z,6.64
2022-11-24T05:56:17.062Z,6.63
2022-11-24T05:58:45.391Z,6.72
2022-11-24T06:01:13.557Z,6.73
2022-11-24T06:03:41.824Z,6.76
2022-11-24T06:06:12.298Z,6.79
2022-11-24T06:08:40.719Z,6.74
2022-11-24T06:11:18.593Z,6.78
2022-11-24T06:13:48.528Z,6.74
2022-11-24T06:16:16.994Z,6.75
2022-11-24T06:18:45.219Z,6.70
2022-11-24T06:21:14.879Z,6.63
2022-11-24T06:23:43.051Z,6.58
2022-11-24T06:26:11.385Z,6.64
2022-11-24T06:28:39.592Z,6.56
2022-11-24T06:31:08.038Z,6.38
2022-11-24T06:33:39.225Z,6.39
2022-11-24T06:36:09.797Z,6.50
2022-11-24T06:38:39.456Z,6.50
2022-11-24T06:41:10.736Z,6.49
2022-11-24T06:43:39.520Z,6.38
2022-11-24T06:46:08.407Z,6.57
2022-11-24T06:48:36.722Z,6.54
2022-11-24T06:51:07.456Z,6.52
2022-11-24T06:53:38.519Z,6.57
2022-11-24T06:56:15.588Z,6.54
2022-11-24T06:58:46.504Z,6.58
2022-11-24T07:01:16.056Z,6.45
2022-11-24T07:03:44.414Z,6.48
2022-11-24T07:06:12.569Z,6.50
2022-11-24T07:08:40.843Z,6.45
2022-11-24T07:11:12.483Z,6.45
2022-11-24T07:13:40.725Z,6.40
2022-11-24T07:16:14.503Z,6.36
2022-11-24T07:18:42.828Z,6.40
2022-11-24T07:21:11.321Z,6.34
2022-11-24T07:23:40.060Z,6.41
2022-11-24T07:26:10.988Z,6.39
2022-11-24T07:28:39.515Z,6.31
2022-11-24T07:31:08.543Z,6.38
2022-11-24T07:33:37.037Z,6.34
2022-11-24T07:36:07.121Z,6.35
2022-11-24T07:38:38.212Z,6.35
2022-11-24T07:41:07.873Z,6.38
2022-11-24T07:43:38.959Z,6.38
2022-11-24T07:46:09.081Z,6.42
2022-11-24T07:48:37.353Z,6.44
2022-11-24T07:51:07.200Z,6.50
2022-11-24T07:53:36.408Z,6.49
2022-11-24T07:56:06.236Z,6.46
2022-11-24T07:58:36.027Z,6.54
2022-11-24T08:01:13.099Z,6.60
2022-11-24T08:03:50.249Z,6.66
2022-11-24T08:06:31.741Z,6.65
2022-11-24T08:09:01.005Z,6.69
2022-11-24T08:11:31.481Z,6.80
2022-11-24T08:13:59.995Z,6.83
2022-11-24T08:16:29.575Z,6.82
2022-11-24T08:18:57.821Z,6.85
2022-11-24T08:21:26.350Z,6.90
2022-11-24T08:23:58.326Z,6.95
2022-11-24T08:26:27.275Z,6.97
2022-11-24T08:28:57.543Z,6.99
2022-11-24T08:31:32.705Z,6.97
2022-11-24T08:34:03.461Z,7.02
2022-11-24T08:36:31.648Z,7.16
2022-11-24T08:39:01.487Z,7.19
2022-11-24T08:41:30.662Z,7.19
2022-11-24T08:43:59.004Z,7.23
2022-11-24T08:46:27.279Z,7.33
2022-11-24T08:48:56.397Z,7.35
2022-11-24T08:51:27.647Z,7.44
2022-11-24T08:53:57.075Z,7.46
2022-11-24T08:56:25.649Z,7.49
2022-11-24T08:58:54.404Z,7.59
2022-11-24T09:01:23.305Z,7.65
2022-11-24T09:03:52.363Z,7.67
2022-11-24T09:06:23.720Z,7.76
2022-11-24T09:08:54.518Z,7.86
2022-11-24T09:11:23.092Z,7.92
2022-11-24T09:13:51.756Z,8.02
2022-11-24T09:16:22.123Z,8.03
2022-11-24T09:18:56.042Z,8.09
2022-11-24T09:21:25.001Z,8.11
2022-11-24T09:23:55.281Z,8.14
2022-11-24T09:26:25.713Z,8.22
2022-11-24T09:28:55.754Z,8.24
2022-11-24T09:31:25.654Z,8.32
2022-11-24T09:33:54.132Z,8.37
2022-11-24T09:36:23.148Z,8.37
2022-11-24T09:38:51.437Z,8.44
2022-11-24T09:41:33.934Z,8.48
2022-11-24T09:44:09.606Z,8.50
2022-11-24T09:46:48.214Z,8.58
2022-11-24T09:49:24.351Z,8.66
2022-11-24T09:51:56.129Z,8.68
2022-11-24T09:54:27.510Z,8.79
2022-11-24T09:57:00.903Z,8.88
2022-11-24T09:59:29.524Z,8.87
2022-11-24T10:01:57.754Z,8.88
2022-11-24T10:04:29.551Z,8.91
2022-11-24T10:07:06.685Z,8.95
2022-11-24T10:09:57.894Z,9.04
2022-11-24T10:12:48.761Z,9.14
2022-11-24T10:15:28.040Z,9.19
2022-11-24T10:18:16.414Z,9.23
2022-11-24T10:20:54.230Z,9.34
2022-11-24T10:23:39.715Z,9.42
2022-11-24T10:26:13.588Z,9.46
2022-11-24T10:28:48.687Z,9.46
2022-11-24T10:31:25.587Z,9.56
2022-11-24T10:34:18.936Z,9.59
2022-11-24T10:36:53.109Z,9.66
2022-11-24T10:39:27.914Z,9.79
2022-11-24T10:42:01.706Z,9.84
2022-11-24T10:44:31.224Z,9.86
2022-11-24T10:46:59.464Z,9.88
2022-11-24T10:49:31.220Z,9.89
2022-11-24T10:52:07.119Z,10.06
2022-11-24T10:54:36.853Z,10.06
2022-11-24T10:57:05.786Z,10.12
2022-11-24T10:59:38.825Z,10.11
2022-11-24T11:02:31.018Z,10.22
2022-11-24T11:04:59.670Z,10.19
2022-11-24T11:07:28.056Z,10.31
2022-11-24T11:10:21.591Z,10.41
2022-11-24T11:12:50.026Z,10.25
2022-11-24T11:15:28.496Z,10.38
2022-11-24T11:17:59.101Z,10.43
2022-11-24T11:20:31.323Z,10.50
2022-11-24T11:23:02.729Z,10.59
2022-11-24T11:25:34.235Z,10.68
2022-11-24T11:28:24.974Z,10.65
2022-11-24T11:31:19.722Z,10.70
2022-11-24T11:34:07.307Z,10.73
2022-11-24T11:36:43.179Z,10.81
2022-11-24T11:39:24.216Z,10.84
2022-11-24T11:41:58.135Z,10.71
2022-11-24T11:44:35.177Z,10.74
2022-11-24T11:47:16.475Z,10.82
2022-11-24T11:49:46.021Z,10.84
2022-11-24T11:52:31.072Z,10.86
2022-11-24T11:55:23.685Z,10.85
2022-11-24T11:57:58.889Z,10.88
2022-11-24T12:00:27.827Z,11.03
2022-11-24T12:03:38.474Z,10.88
2022-11-24T12:06:17.031Z,10.83
2022-11-24T12:09:19.230Z,10.82
2022-11-24T12:11:50.580Z,10.75
2022-11-24T12:14:28.852Z,10.62
2022-11-24T12:17:07.334Z,10.64
2022-11-24T12:19:49.325Z,10.67
2022-11-24T12:22:28.562Z,10.79
2022-11-24T12:25:01.913Z,10.97
2022-11-24T12:27:43.043Z,11.22
2022-11-24T12:30:13.695Z,11.42
2022-11-24T12:33:12.609Z,11.51
2022-11-24T12:35:45.279Z,11.57
2022-11-24T12:38:26.951Z,11.59
2022-11-24T12:41:40.597Z,11.56
2022-11-24T12:44:17.533Z,11.46
2022-11-24T12:46:54.092Z,11.39
2022-11-24T12:49:31.641Z,11.46
2022-11-24T12:52:04.717Z,11.36
2022-11-24T12:54:39.372Z,11.32
2022-11-24T12:57:12.957Z,11.33
2022-11-24T12:59:45.379Z,11.30
2022-11-24T13:02:26.030Z,11.30
2022-11-24T13:05:02.387Z,11.24
2022-11-24T13:07:45.255Z,11.17
2022-11-24T13:13:27.374Z,11.07
2022-11-24T13:19:10.177Z,11.12
2022-11-24T13:21:51.793Z,11.03
2022-11-24T13:24:27.334Z,11.05
2022-11-24T13:27:16.885Z,11.04
2022-11-24T13:29:45.892Z,11.11
2022-11-24T13:32:50.573Z,11.16
2022-11-24T13:35:18.934Z,11.05
2022-11-24T13:37:51.639Z,10.99
2022-11-24T13:40:59.645Z,10.88
2022-11-24T13:43:32.499Z,10.82
2022-11-24T13:46:00.676Z,10.79
2022-11-24T13:48:53.792Z,10.71
2022-11-24T13:51:25.906Z,10.64
2022-11-24T13:53:56.728Z,10.59
2022-11-24T13:56:31.238Z,10.58
2022-11-24T13:59:02.360Z,10.51
2022-11-24T14:01:33.268Z,10.53
2022-11-24T14:04:34.003Z,10.49
2022-11-24T14:07:09.111Z,10.49
2022-11-24T14:09:43.670Z,10.44
2022-11-24T14:12:17.920Z,10.42
2022-11-24T14:14:47.811Z,10.43
2022-11-24T14:17:19.780Z,10.48
2022-11-24T14:19:49.657Z,10.49
2022-11-24T14:22:21.063Z,10.49
2022-11-24T14:24:54.685Z,10.48
2022-11-24T14:27:29.846Z,10.44
2022-11-24T14:29:59.738Z,10.35
2022-11-24T14:32:28.534Z,10.37
2022-11-24T14:34:56.966Z,10.33
2022-11-24T14:37:25.487Z,10.31
2022-11-24T14:39:53.742Z,10.22
2022-11-24T14:42:25.155Z,10.22
2022-11-24T14:44:56.543Z,10.18
2022-11-24T14:47:31.457Z,10.14
2022-11-24T14:50:09.167Z,10.09
2022-11-24T14:52:44.039Z,10.06
2022-11-24T14:55:25.408Z,9.99
2022-11-24T14:57:54.969Z,9.90
2022-11-24T15:00:28.572Z,9.83
2022-11-24T15:03:08.840Z,9.76
2022-11-24T15:05:55.110Z,9.69
2022-11-24T15:08:24.930Z,9.66
2022-11-24T15:10:59.294Z,9.61
2022-11-24T15:13:30.091Z,9.59
2022-11-24T15:16:02.862Z,9.50
2022-11-24T15:18:38.489Z,9.51
2022-11-24T15:21:07.838Z,9.44
2022-11-24T15:23:37.074Z,9.41
2022-11-24T15:26:31.307Z,9.47
2022-11-24T15:29:02.676Z,9.46
2022-11-24T15:31:31.393Z,9.46
2022-11-24T15:33:59.651Z,9.44
2022-11-24T15:36:27.851Z,9.44
2022-11-24T15:38:56.101Z,9.44
2022-11-24T15:41:29.067Z,9.45
2022-11-24T15:43:59.282Z,9.46
2022-11-24T15:46:30.404Z,9.47
2022-11-24T15:48:58.733Z,9.46
2022-11-24T15:51:27.820Z,9.44
2022-11-24T15:54:01.066Z,9.35
2022-11-24T15:56:32.663Z,9.35
2022-11-24T15:59:01.024Z,9.30
2022-11-24T16:01:32.535Z,9.32
2022-11-24T16:04:00.852Z,9.26
2022-11-24T16:06:29.178Z,9.26
2022-11-24T16:08:59.094Z,9.25
2022-11-24T16:11:27.611Z,9.18
2022-11-24T16:13:55.891Z,9.18
2022-11-24T16:16:25.646Z,9.23
2022-11-24T16:19:15.871Z,9.17
2022-11-24T16:22:02.690Z,9.08
2022-11-24T16:24:50.350Z,9.06
2022-11-24T16:27:19.574Z,9.04
2022-11-24T16:29:47.750Z,8.98
2022-11-24T16:32:16.017Z,8.94
2022-11-24T16:34:45.676Z,8.95
2022-11-24T16:37:13.906Z,8.94
2022-11-24T16:39:48.444Z,8.92
2022-11-24T16:42:18.279Z,8.87
2022-11-24T16:44:46.439Z,8.81
2022-11-24T16:47:14.614Z,8.78
2022-11-24T16:49:42.827Z,8.81
2022-11-24T16:52:12.403Z,8.80
2022-11-24T16:54:40.824Z,8.77
2022-11-24T16:57:14.972Z,8.77
2022-11-24T16:59:46.118Z,8.73
2022-11-24T17:02:14.736Z,8.78
2022-11-24T17:04:43.153Z,8.71
2022-11-24T17:07:13.819Z,8.64
2022-11-24T17:09:42.034Z,8.61
2022-11-24T17:12:10.275Z,8.55
2022-11-24T17:14:38.902Z,8.49
2022-11-24T17:17:07.920Z,8.52
2022-11-24T17:19:36.149Z,8.48
2022-11-24T17:22:04.590Z,8.41
2022-11-24T17:24:34.987Z,8.34
2022-11-24T17:27:03.424Z,8.33
2022-11-24T17:29:32.402Z,8.34
2022-11-24T17:32:00.683Z,8.41
2022-11-24T17:34:28.949Z,8.44
2022-11-24T17:36:57.173Z,8.45
2022-11-24T17:39:26.632Z,8.38
2022-11-24T17:41:56.156Z,8.44
2022-11-24T17:44:24.554Z,8.46
2022-11-24T17:46:52.790Z,8.46
2022-11-24T17:49:21.267Z,8.45
2022-11-24T17:51:50.603Z,8.48
2022-11-24T17:57:09.470Z,8.50
2022-11-24T17:59:37.649Z,8.49
2022-11-24T18:02:08.336Z,8.49
2022-11-24T18:04:37.053Z,8.48
2022-11-24T18:07:06.569Z,8.36
2022-11-24T18:09:34.747Z,8.53
2022-11-24T18:12:02.901Z,8.65
2022-11-24T18:14:34.526Z,8.68
2022-11-24T18:17:02.970Z,8.73
2022-11-24T18:19:32.255Z,8.80
2022-11-24T18:22:00.529Z,8.90
2022-11-24T18:24:28.651Z,8.95
2022-11-24T18:26:56.963Z,8.92
2022-11-24T18:29:25.250Z,8.90
2022-11-24T18:31:54.852Z,9.00
2022-11-24T18:34:24.737Z,8.98
2022-11-24T18:36:53.144Z,9.05
2022-11-24T18:39:21.383Z,9.09
2022-11-24T18:41:49.613Z,9.04
2022-11-24T18:44:17.958Z,9.05
2022-11-24T18:46:46.152Z,8.92
2022-11-24T18:49:15.735Z,8.91
2022-11-24T18:51:44.096Z,8.88
2022-11-24T18:54:12.338Z,8.81
2022-11-24T18:56:40.669Z,8.89
2022-11-24T18:59:08.917Z,8.94
2022-11-24T19:01:37.674Z,9.05
2022-11-24T19:04:06.905Z,8.96
2022-11-24T19:06:38.602Z,9.04
2022-11-24T19:09:10.549Z,9.06
2022-11-24T19:11:41.158Z,9.04
2022-11-24T19:14:12.338Z,9.11
2022-11-24T19:16:41.272Z,9.14
2022-11-24T19:19:11.547Z,9.19
2022-11-24T19:21:41.710Z,9.31
2022-11-24T19:24:11.290Z,9.32
2022-11-24T19:26:40.505Z,9.38
2022-11-24T19:29:09.233Z,9.40
2022-11-24T19:31:39.549Z,9.39
2022-11-24T19:34:08.300Z,9.44
2022-11-24T19:36:37.233Z,9.49
2022-11-24T19:39:07.403Z,9.57
2022-11-24T19:41:35.690Z,9.56
2022-11-24T19:44:03.948Z,9.63
2022-11-24T19:46:33.493Z,9.53
2022-11-24T19:49:02.776Z,9.45
2022-11-24T19:51:32.843Z,9.40
2022-11-24T19:54:01.967Z,9.39
2022-11-24T19:56:34.213Z,9.33
2022-11-24T19:59:02.979Z,9.34
2022-11-24T20:01:33.452Z,9.34
2022-11-24T20:04:04.175Z,9.31
2022-11-24T20:06:36.737Z,9.31
2022-11-24T20:09:07.180Z,9.34
2022-11-24T20:11:37.193Z,9.31
2022-11-24T20:14:07.521Z,9.37
2022-11-24T20:16:36.165Z,9.37
2022-11-24T20:19:07.582Z,9.46
2022-11-24T20:21:36.674Z,9.50
2022-11-24T20:24:07.389Z,9.56
2022-11-24T20:26:39.540Z,9.56
2022-11-24T20:29:09.887Z,9.61
2022-11-24T20:31:40.729Z,9.64
2022-11-24T20:34:09.880Z,9.63
2022-11-24T20:36:40.508Z,9.70
2022-11-24T20:39:10.828Z,9.75
2022-11-24T20:41:41.563Z,9.77
2022-11-24T20:44:13.793Z,9.76
2022-11-24T20:46:43.943Z,9.84
2022-11-24T20:49:14.607Z,9.88
2022-11-24T20:51:44.166Z,9.80
2022-11-24T20:54:14.019Z,9.84
2022-11-24T20:56:46.331Z,9.84
2022-11-24T20:59:16.770Z,9.86
2022-11-24T21:01:47.793Z,9.85
2022-11-24T21:04:18.687Z,9.96
2022-11-24T21:06:47.177Z,10.04
2022-11-24T21:09:15.562Z,10.03
2022-11-24T21:11:45.657Z,10.00
2022-11-24T21:14:14.320Z,10.01
2022-11-24T21:16:43.474Z,10.07
2022-11-24T21:19:13.737Z,10.09
2022-11-24T21:21:42.970Z,10.13
2022-11-24T21:24:13.882Z,10.16
2022-11-24T21:26:43.342Z,10.18
2022-11-24T21:29:15.196Z,10.18
2022-11-24T21:31:43.512Z,10.12
2022-11-24T21:34:16.013Z,10.03
2022-11-24T21:36:45.531Z,9.99
2022-11-24T21:39:14.832Z,10.03
2022-11-24T21:41:43.671Z,9.93
2022-11-24T21:44:13.850Z,9.98
2022-11-24T21:46:48.245Z,9.93
2022-11-24T21:49:19.251Z,9.98
2022-11-24T21:51:47.480Z,9.93
2022-11-24T21:54:15.585Z,9.94
2022-11-24T21:56:43.807Z,9.95
2022-11-24T21:59:13.402Z,9.93
2022-11-24T22:01:41.763Z,9.92
2022-11-24T22:04:10.835Z,9.83
2022-11-24T22:06:39.140Z,9.74
2022-11-24T22:09:07.545Z,9.70
2022-11-24T22:11:35.767Z,9.71
2022-11-24T22:14:03.853Z,9.69
2022-11-24T22:16:33.727Z,9.72
2022-11-24T22:19:02.080Z,9.70
2022-11-24T22:21:33.393Z,9.75
2022-11-24T22:24:01.814Z,9.83
2022-11-24T22:26:31.130Z,9.76
2022-11-24T22:29:00.230Z,9.74
2022-11-24T22:31:30.275Z,9.77
2022-11-24T22:34:01.018Z,9.77
2022-11-24T22:36:30.922Z,9.78
2022-11-24T22:39:03.011Z,9.82
2022-11-24T22:41:32.197Z,9.83
2022-11-24T22:44:00.502Z,9.84
2022-11-24T22:46:30.490Z,9.81
2022-11-24T22:49:01.689Z,9.84
2022-11-24T22:51:31.389Z,9.80
2022-11-24T22:54:01.331Z,9.81
2022-11-24T22:56:32.362Z,9.89
2022-11-24T22:59:01.306Z,9.93
2022-11-24T23:01:32.217Z,9.93
2022-11-24T23:04:02.497Z,9.94
2022-11-24T23:06:32.380Z,9.89
2022-11-24T23:09:01.535Z,9.93
2022-11-24T23:11:37.249Z,9.91
2022-11-24T23:14:08.017Z,9.89
2022-11-24T23:16:36.493Z,9.90
2022-11-24T23:19:06.328Z,9.88
2022-11-24T23:21:36.326Z,9.85
2022-11-24T23:24:07.709Z,9.88
2022-11-24T23:26:38.565Z,9.84
2022-11-24T23:29:07.177Z,9.83
2022-11-24T23:31:39.651Z,9.88
2022-11-24T23:34:09.710Z,9.88
2022-11-24T23:36:38.028Z,9.92
2022-11-24T23:39:08.564Z,9.90
2022-11-24T23:41:37.267Z,9.91
2022-11-24T23:44:06.220Z,9.88
2022-11-24T23:46:34.649Z,9.94
2022-11-24T23:49:03.215Z,9.89
2022-11-24T23:51:34.230Z,9.94
2022-11-24T23:54:02.610Z,9.95
2022-11-24T23:56:33.107Z,9.96
2022-11-24T23:59:02.372Z,9.95
